Time;durP1;ratioP1;P1;durP2;ratioP2;P2;SDS_P1;SDS_P2;PMS_P1;PMS_P2;Temp;Humidity;BMP_temperature;BMP_pressure;BME280_temperature;BME280_humidity;BME280_pressure;Samples;Min_cycle;Max_cycle;Signal;HPM_P1;HPM_P2
2024/03/17 00:01:41;;;;;;;0.10;0.10;;;;;;;;;;4984812;28;20500;-87
2024/03/17 00:04:07;;;;;;;0.10;0.10;;;;;;;;;;5000889;28;20040;-87
2024/03/17 00:06:33;;;;;;;0.10;0.10;;;;;;;;;;4984639;28;20042;-87
2024/03/17 00:09:02;;;;;;;0.10;0.10;;;;;;;;;;4984644;28;20037;-88
2024/03/17 00:11:29;;;;;;;0.10;0.10;;;;;;;;;;4985283;28;20073;-87
2024/03/17 00:13:55;;;;;;;0.10;0.10;;;;;;;;;;4984876;28;20483;-88
2024/03/17 00:16:21;;;;;;;0.10;0.10;;;;;;;;;;4985100;28;20530;-87
2024/03/17 00:18:47;;;;;;;0.10;0.10;;;;;;;;;;4961833;28;20081;-87
2024/03/17 00:21:13;;;;;;;0.10;0.10;;;;;;;;;;4978123;28;20329;-87
2024/03/17 00:23:39;;;;;;;0.10;0.10;;;;;;;;;;4978137;28;20031;-87
2024/03/17 00:26:05;;;;;;;0.00;0.00;;;;;;;;;;4978127;28;20388;-86
2024/03/17 00:28:31;;;;;;;0.10;0.10;;;;;;;;;;4994128;28;20064;-87
2024/03/17 00:30:57;;;;;;;0.15;0.15;;;;;;;;;;4994263;28;20386;-86
2024/03/17 00:33:24;;;;;;;0.10;0.10;;;;;;;;;;4993903;28;20077;-87
2024/03/17 00:35:50;;;;;;;0.10;0.10;;;;;;;;;;4993898;28;20085;-86
2024/03/17 00:38:17;;;;;;;0.10;0.10;;;;;;;;;;4994176;28;20050;-87
2024/03/17 00:40:45;;;;;;;0.10;0.10;;;;;;;;;;4993795;28;20046;-86
2024/03/17 00:43:14;;;;;;;0.10;0.10;;;;;;;;;;4994063;28;20045;-87
2024/03/17 00:45:40;;;;;;;0.10;0.10;;;;;;;;;;4977444;28;20042;-87
2024/03/17 00:48:06;;;;;;;0.10;0.10;;;;;;;;;;4993440;28;20149;-86
2024/03/17 00:50:32;;;;;;;0.10;0.10;;;;;;;;;;4977675;28;20131;-86
2024/03/17 00:52:59;;;;;;;0.10;0.10;;;;;;;;;;4993685;28;20430;-86
2024/03/17 00:55:25;;;;;;;0.10;0.10;;;;;;;;;;4993585;28;20039;-87
2024/03/17 00:57:52;;;;;;;0.10;0.10;;;;;;;;;;4977293;28;20165;-86
2024/03/17 01:00:18;;;;;;;0.20;0.20;;;;;;;;;;4977543;28;20042;-86
2024/03/17 01:02:44;;;;;;;0.10;0.10;;;;;;;;;;4977167;28;20046;-86
2024/03/17 01:05:10;;;;;;;0.10;0.10;;;;;;;;;;4993841;28;20108;-86
2024/03/17 01:07:36;;;;;;;0.10;0.10;;;;;;;;;;4993342;28;20042;-86
2024/03/17 01:10:03;;;;;;;0.38;0.38;;;;;;;;;;4993281;28;20042;-86
2024/03/17 01:12:29;;;;;;;0.10;0.10;;;;;;;;;;4993348;28;20050;-86
2024/03/17 01:14:55;;;;;;;0.10;0.10;;;;;;;;;;4976959;28;20053;-87
2024/03/17 01:17:21;;;;;;;0.10;0.10;;;;;;;;;;5001229;28;20512;-86
2024/03/17 01:19:47;;;;;;;0.10;0.10;;;;;;;;;;4996428;28;20045;-86
2024/03/17 01:22:13;;;;;;;0.10;0.10;;;;;;;;;;4980072;28;20086;-86
2024/03/17 01:24:45;;;;;;;0.10;0.10;;;;;;;;;;4996244;28;20040;-86
2024/03/17 01:27:14;;;;;;;0.10;0.10;;;;;;;;;;4981189;28;20394;-86
2024/03/17 01:29:40;;;;;;;0.10;0.10;;;;;;;;;;4980397;28;20033;-87
2024/03/17 01:32:06;;;;;;;0.10;0.10;;;;;;;;;;4995883;28;20038;-86
2024/03/17 01:34:32;;;;;;;0.10;0.10;;;;;;;;;;4996258;28;20038;-86
2024/03/17 01:36:58;;;;;;;0.10;0.10;;;;;;;;;;4995974;28;20405;-86
2024/03/17 01:39:25;;;;;;;0.10;0.10;;;;;;;;;;4996037;28;20038;-87
2024/03/17 01:41:52;;;;;;;0.10;0.10;;;;;;;;;;4979742;28;20049;-87
2024/03/17 01:44:26;;;;;;;0.10;0.10;;;;;;;;;;4979859;28;20042;-86
2024/03/17 01:46:52;;;;;;;0.10;0.10;;;;;;;;;;5012072;28;20096;-87
2024/03/17 01:49:18;;;;;;;0.10;0.10;;;;;;;;;;5012124;28;20041;-87
2024/03/17 01:51:45;;;;;;;0.10;0.10;;;;;;;;;;4995628;28;20042;-87
2024/03/17 01:54:11;;;;;;;0.10;0.10;;;;;;;;;;4995719;28;20042;-86
2024/03/17 01:56:37;;;;;;;0.10;0.10;;;;;;;;;;4979668;28;20449;-86
2024/03/17 01:59:04;;;;;;;0.10;0.10;;;;;;;;;;4995150;28;20075;-87
2024/03/17 02:01:30;;;;;;;0.10;0.10;;;;;;;;;;4979494;28;20046;-87
2024/03/17 02:03:57;;;;;;;0.10;0.10;;;;;;;;;;4979391;28;20148;-86
2024/03/17 02:06:24;;;;;;;0.10;0.10;;;;;;;;;;4979713;28;20096;-86
2024/03/17 02:08:50;;;;;;;0.10;0.10;;;;;;;;;;4979421;28;20038;-86
2024/03/17 02:11:26;;;;;;;0.10;0.10;;;;;;;;;;4979004;28;20053;-86
2024/03/17 02:13:52;;;;;;;0.10;0.10;;;;;;;;;;4979254;28;20042;-86
2024/03/17 02:16:19;;;;;;;0.10;0.10;;;;;;;;;;4979331;28;20069;-87
2024/03/17 02:18:45;;;;;;;0.10;0.10;;;;;;;;;;4994999;28;20058;-86
2024/03/17 02:21:12;;;;;;;0.10;0.10;;;;;;;;;;4979069;28;20054;-86
2024/03/17 02:23:38;;;;;;;0.10;0.10;;;;;;;;;;4979061;28;20048;-86
2024/03/17 02:26:04;;;;;;;0.10;0.10;;;;;;;;;;4995462;28;20394;-86
2024/03/17 02:28:38;;;;;;;0.10;0.10;;;;;;;;;;4978886;28;20041;-86
2024/03/17 02:31:05;;;;;;;0.10;0.10;;;;;;;;;;4978987;28;20041;-86
2024/03/17 02:33:31;;;;;;;0.10;0.10;;;;;;;;;;4978946;28;20081;-87
2024/03/17 02:35:57;;;;;;;0.10;0.10;;;;;;;;;;4994990;28;20053;-87
2024/03/17 02:41:08;;;;;;;0.10;0.10;;;;;;;;;;5011134;28;20121;-87
2024/03/17 02:43:35;;;;;;;0.10;0.10;;;;;;;;;;4978951;28;20038;-87
2024/03/17 02:46:04;;;;;;;0.20;0.20;;;;;;;;;;5011186;28;20050;-87
2024/03/17 02:48:30;;;;;;;0.10;0.10;;;;;;;;;;4979390;28;20103;-86
2024/03/17 02:50:56;;;;;;;0.10;0.10;;;;;;;;;;4978638;28;20048;-87
2024/03/17 02:53:23;;;;;;;0.10;0.10;;;;;;;;;;4978892;28;20046;-87
2024/03/17 02:55:49;;;;;;;0.10;0.10;;;;;;;;;;4979041;28;20045;-86
2024/03/17 02:58:15;;;;;;;0.10;0.10;;;;;;;;;;4978576;28;20531;-87
2024/03/17 03:00:41;;;;;;;0.10;0.10;;;;;;;;;;4978585;28;20046;-87
2024/03/17 03:03:07;;;;;;;0.10;0.10;;;;;;;;;;4978809;28;20030;-86
2024/03/17 03:05:33;;;;;;;0.10;0.10;;;;;;;;;;4978443;28;20567;-86
2024/03/17 03:08:00;;;;;;;0.10;0.10;;;;;;;;;;4978670;28;20182;-86
2024/03/17 03:10:26;;;;;;;0.10;0.10;;;;;;;;;;4994774;28;20505;-87
2024/03/17 03:12:52;;;;;;;0.10;0.10;;;;;;;;;;4998801;28;20573;-86
2024/03/17 03:15:18;;;;;;;0.10;0.10;;;;;;;;;;4999017;28;20045;-87
2024/03/17 03:17:44;;;;;;;0.10;0.10;;;;;;;;;;4982496;28;20448;-86
2024/03/17 03:20:12;;;;;;;0.10;0.10;;;;;;;;;;4998236;28;20104;-86
2024/03/17 03:22:38;;;;;;;0.10;0.10;;;;;;;;;;4982540;28;20129;-87
2024/03/17 03:25:04;;;;;;;0.10;0.10;;;;;;;;;;4982330;28;20088;-87
2024/03/17 03:27:30;;;;;;;0.10;0.10;;;;;;;;;;4998477;28;20038;-87
2024/03/17 03:29:56;;;;;;;0.10;0.10;;;;;;;;;;4998417;28;20046;-88
2024/03/17 03:32:22;;;;;;;0.10;0.10;;;;;;;;;;4982232;28;20095;-88
2024/03/17 03:34:48;;;;;;;0.10;0.10;;;;;;;;;;4982096;28;20080;-87
2024/03/17 03:37:15;;;;;;;0.10;0.10;;;;;;;;;;4982033;28;20038;-88
2024/03/17 03:39:41;;;;;;;0.20;0.20;;;;;;;;;;4982251;28;20521;-88
2024/03/17 03:42:07;;;;;;;0.10;0.10;;;;;;;;;;4998204;28;20046;-87
2024/03/17 03:44:33;;;;;;;0.10;0.10;;;;;;;;;;5014379;28;20125;-87
2024/03/17 03:47:00;;;;;;;0.10;0.10;;;;;;;;;;4998403;28;20434;-88
2024/03/17 03:49:26;;;;;;;0.10;0.10;;;;;;;;;;4982147;28;20046;-88
2024/03/17 03:51:53;;;;;;;0.10;0.10;;;;;;;;;;4981664;28;20041;-87
2024/03/17 03:54:19;;;;;;;0.10;0.10;;;;;;;;;;4981487;28;20049;-87
2024/03/17 03:56:45;;;;;;;0.10;0.10;;;;;;;;;;4981987;28;20068;-87
2024/03/17 03:59:11;;;;;;;0.10;0.10;;;;;;;;;;4981801;28;20045;-87
2024/03/17 04:01:37;;;;;;;0.10;0.10;;;;;;;;;;4997604;28;20050;-87
2024/03/17 04:04:03;;;;;;;0.10;0.10;;;;;;;;;;4981597;28;20049;-87
2024/03/17 04:06:29;;;;;;;0.10;0.10;;;;;;;;;;4981588;28;20401;-88
2024/03/17 04:08:55;;;;;;;0.10;0.10;;;;;;;;;;4998002;28;20442;-87
2024/03/17 04:11:21;;;;;;;0.10;0.10;;;;;;;;;;4981428;28;20490;-87
2024/03/17 04:13:48;;;;;;;0.10;0.10;;;;;;;;;;5013870;28;20080;-87
2024/03/17 04:16:14;;;;;;;0.10;0.10;;;;;;;;;;4981411;28;20042;-87
2024/03/17 04:18:41;;;;;;;0.10;0.10;;;;;;;;;;4981287;28;20460;-86
2024/03/17 04:21:07;;;;;;;0.10;0.10;;;;;;;;;;4981027;28;20393;-86
2024/03/17 04:23:33;;;;;;;0.10;0.10;;;;;;;;;;4997260;28;20392;-86
2024/03/17 04:25:59;;;;;;;0.10;0.10;;;;;;;;;;4981249;28;20033;-87
2024/03/17 04:28:25;;;;;;;0.10;0.10;;;;;;;;;;4997424;28;20042;-87
2024/03/17 04:30:51;;;;;;;0.10;0.10;;;;;;;;;;4980879;28;20180;-86
2024/03/17 04:33:17;;;;;;;0.10;0.10;;;;;;;;;;4981055;28;20053;-86
2024/03/17 04:35:43;;;;;;;0.10;0.10;;;;;;;;;;4981241;28;20046;-87
2024/03/17 04:38:09;;;;;;;0.10;0.10;;;;;;;;;;4980868;28;20067;-86
2024/03/17 04:40:36;;;;;;;0.17;0.17;;;;;;;;;;5013163;28;20088;-86
2024/03/17 04:43:02;;;;;;;0.10;0.10;;;;;;;;;;4980797;28;20485;-86
2024/03/17 04:45:28;;;;;;;0.10;0.10;;;;;;;;;;4980808;28;20045;-86
2024/03/17 04:47:54;;;;;;;0.10;0.10;;;;;;;;;;4980843;28;20077;-87
2024/03/17 04:50:21;;;;;;;0.10;0.10;;;;;;;;;;4996842;28;20038;-87
2024/03/17 04:52:47;;;;;;;0.10;0.10;;;;;;;;;;4996668;28;20048;-87
2024/03/17 04:55:13;;;;;;;0.10;0.10;;;;;;;;;;4980644;28;20048;-86
2024/03/17 04:57:39;;;;;;;0.10;0.10;;;;;;;;;;4996708;28;20089;-87
2024/03/17 05:00:07;;;;;;;0.10;0.10;;;;;;;;;;4980294;28;20042;-86
2024/03/17 05:02:33;;;;;;;0.10;0.10;;;;;;;;;;4980926;28;20041;-86
2024/03/17 05:04:59;;;;;;;0.10;0.10;;;;;;;;;;4996712;28;20128;-87
2024/03/17 05:07:25;;;;;;;0.10;0.10;;;;;;;;;;4996508;28;20038;-87
2024/03/17 05:09:51;;;;;;;0.10;0.10;;;;;;;;;;4996466;28;20470;-86
2024/03/17 05:12:17;;;;;;;0.10;0.10;;;;;;;;;;4996576;28;20064;-87
2024/03/17 05:14:43;;;;;;;0.10;0.10;;;;;;;;;;4996221;28;20087;-87
2024/03/17 05:17:09;;;;;;;0.10;0.10;;;;;;;;;;4979954;28;20401;-87
2024/03/17 05:19:36;;;;;;;0.20;0.20;;;;;;;;;;4996518;28;20042;-86
2024/03/17 05:22:02;;;;;;;0.13;0.13;;;;;;;;;;4980008;28;20056;-87
2024/03/17 05:24:28;;;;;;;0.10;0.10;;;;;;;;;;4980106;28;20049;-87
2024/03/17 05:26:54;;;;;;;0.10;0.10;;;;;;;;;;4979940;28;20555;-87
2024/03/17 05:29:20;;;;;;;0.10;0.10;;;;;;;;;;4996087;28;20544;-87
2024/03/17 05:31:47;;;;;;;0.10;0.10;;;;;;;;;;4980128;28;20124;-86
2024/03/17 05:34:13;;;;;;;0.10;0.10;;;;;;;;;;4979656;28;20054;-86
2024/03/17 05:36:39;;;;;;;0.10;0.10;;;;;;;;;;4979724;28;20046;-85
2024/03/17 05:39:05;;;;;;;0.10;0.10;;;;;;;;;;4979999;28;20077;-87
2024/03/17 05:41:31;;;;;;;0.10;0.10;;;;;;;;;;4995796;28;20045;-86
2024/03/17 05:44:03;;;;;;;0.20;0.20;;;;;;;;;;4995970;28;20041;-86
2024/03/17 05:46:29;;;;;;;0.10;0.10;;;;;;;;;;4980817;28;20064;-86
2024/03/17 05:48:55;;;;;;;0.10;0.10;;;;;;;;;;4979534;28;20042;-86
2024/03/17 05:51:21;;;;;;;0.10;0.10;;;;;;;;;;4995905;28;20054;-87
2024/03/17 05:53:47;;;;;;;0.10;0.10;;;;;;;;;;4979724;28;20370;-87
2024/03/17 05:56:15;;;;;;;0.10;0.10;;;;;;;;;;4995548;28;20113;-87
2024/03/17 05:58:41;;;;;;;0.10;0.10;;;;;;;;;;4979847;28;20050;-87
2024/03/17 06:01:07;;;;;;;0.20;0.20;;;;;;;;;;4979332;28;20046;-87
2024/03/17 06:03:35;;;;;;;0.10;0.10;;;;;;;;;;4979515;28;20049;-87
2024/03/17 06:06:01;;;;;;;0.10;0.10;;;;;;;;;;4979931;28;20415;-87
2024/03/17 06:08:28;;;;;;;0.20;0.20;;;;;;;;;;4979272;28;20045;-87
2024/03/17 06:10:54;;;;;;;0.10;0.10;;;;;;;;;;4979259;28;20041;-87
2024/03/17 06:13:20;;;;;;;0.15;0.15;;;;;;;;;;4979459;28;20467;-88
2024/03/17 06:15:47;;;;;;;0.10;0.10;;;;;;;;;;4995343;28;20095;-88
2024/03/17 06:18:14;;;;;;;0.20;0.20;;;;;;;;;;4979039;28;20061;-86
2024/03/17 06:20:42;;;;;;;0.10;0.10;;;;;;;;;;4995124;28;20046;-85
2024/03/17 06:23:08;;;;;;;2.25;0.20;;;;;;;;;;4979430;28;20099;-85
2024/03/17 06:25:39;;;;;;;0.10;0.10;;;;;;;;;;4979156;28;20037;-85
2024/03/17 06:28:05;;;;;;;0.10;0.10;;;;;;;;;;5011861;28;20084;-87
2024/03/17 06:30:32;;;;;;;0.10;0.10;;;;;;;;;;5011474;28;20608;-86
2024/03/17 06:32:58;;;;;;;0.20;0.20;;;;;;;;;;4979138;28;20193;-86
2024/03/17 06:35:26;;;;;;;0.20;0.20;;;;;;;;;;4978913;28;20110;-86
2024/03/17 06:37:52;;;;;;;0.10;0.10;;;;;;;;;;4979383;28;20042;-84
2024/03/17 06:40:18;;;;;;;1.17;0.30;;;;;;;;;;4978750;28;20042;-84
2024/03/17 06:42:45;;;;;;;0.10;0.10;;;;;;;;;;4979108;28;20103;-86
2024/03/17 06:45:11;;;;;;;0.43;0.30;;;;;;;;;;4995523;28;20038;-86
2024/03/17 06:47:37;;;;;;;0.10;0.10;;;;;;;;;;4995191;28;20050;-87
2024/03/17 06:50:04;;;;;;;0.10;0.10;;;;;;;;;;4978682;28;20049;-87
2024/03/17 06:52:30;;;;;;;0.10;0.10;;;;;;;;;;4994854;28;20042;-86
2024/03/17 06:54:57;;;;;;;0.10;0.10;;;;;;;;;;4978877;28;20052;-86
2024/03/17 06:57:24;;;;;;;3.50;0.68;;;;;;;;;;4994671;28;20048;-86
2024/03/17 06:59:50;;;;;;;0.10;0.10;;;;;;;;;;4994788;28;20406;-86
2024/03/17 07:02:18;;;;;;;0.10;0.10;;;;;;;;;;4979046;28;20044;-86
2024/03/17 07:04:47;;;;;;;0.10;0.10;;;;;;;;;;4978801;28;20042;-86
2024/03/17 07:07:14;;;;;;;0.10;0.10;;;;;;;;;;4978474;28;20038;-86
2024/03/17 07:09:40;;;;;;;0.10;0.10;;;;;;;;;;5010903;28;20513;-86
2024/03/17 07:12:10;;;;;;;0.38;0.20;;;;;;;;;;4978599;28;20045;-86
2024/03/17 07:14:36;;;;;;;0.10;0.10;;;;;;;;;;4978691;28;20037;-88
2024/03/17 07:17:02;;;;;;;0.20;0.20;;;;;;;;;;4977676;28;20137;-87
2024/03/17 07:19:28;;;;;;;0.10;0.10;;;;;;;;;;5008098;28;20057;-86
2024/03/17 07:21:54;;;;;;;0.10;0.10;;;;;;;;;;4978095;28;20181;-87
2024/03/17 07:24:21;;;;;;;0.32;0.32;;;;;;;;;;4993323;28;20070;-86
2024/03/17 07:26:50;;;;;;;0.15;0.13;;;;;;;;;;4993494;28;20046;-86
2024/03/17 07:29:19;;;;;;;0.10;0.10;;;;;;;;;;5009598;28;20100;-87
2024/03/17 07:31:45;;;;;;;0.20;0.20;;;;;;;;;;5010914;28;20073;-86
2024/03/17 07:34:11;;;;;;;0.10;0.10;;;;;;;;;;5026575;28;20042;-87
2024/03/17 07:36:38;;;;;;;0.10;0.10;;;;;;;;;;5009586;28;20053;-83
2024/03/17 07:39:04;;;;;;;0.10;0.10;;;;;;;;;;4993694;28;20042;-86
2024/03/17 07:41:30;;;;;;;0.10;0.10;;;;;;;;;;4976911;28;20046;-86
2024/03/17 07:43:56;;;;;;;0.10;0.10;;;;;;;;;;5009819;28;20367;-86
2024/03/17 07:46:22;;;;;;;0.17;0.17;;;;;;;;;;5010314;28;20054;-86
2024/03/17 07:48:48;;;;;;;0.20;0.20;;;;;;;;;;5009801;28;20040;-86
2024/03/17 07:51:16;;;;;;;0.10;0.10;;;;;;;;;;5026484;28;20469;-86
2024/03/17 07:53:42;;;;;;;0.10;0.10;;;;;;;;;;5010116;28;20096;-87
2024/03/17 07:56:09;;;;;;;0.10;0.10;;;;;;;;;;5026220;28;20088;-88
2024/03/17 07:58:36;;;;;;;0.20;0.20;;;;;;;;;;4996524;28;20046;-87
2024/03/17 08:01:03;;;;;;;0.10;0.10;;;;;;;;;;4997517;28;20115;-88
2024/03/17 08:03:33;;;;;;;0.25;0.25;;;;;;;;;;4996821;28;20183;-87
2024/03/17 08:06:00;;;;;;;0.28;0.28;;;;;;;;;;5009667;28;20085;-87
2024/03/17 08:08:26;;;;;;;0.20;0.20;;;;;;;;;;5027354;28;20084;-88
2024/03/17 08:10:52;;;;;;;0.20;0.20;;;;;;;;;;4996847;28;20129;-89
2024/03/17 08:13:18;;;;;;;0.20;0.20;;;;;;;;;;4997348;28;20064;-91
2024/03/17 08:15:45;;;;;;;0.10;0.10;;;;;;;;;;5013876;28;20049;-86
2024/03/17 08:18:11;;;;;;;0.10;0.10;;;;;;;;;;5012596;28;20093;-84
2024/03/17 08:20:39;;;;;;;0.38;0.38;;;;;;;;;;5012347;28;20049;-84
2024/03/17 08:23:05;;;;;;;0.10;0.10;;;;;;;;;;5013025;28;20038;-85
2024/03/17 08:25:32;;;;;;;0.68;0.68;;;;;;;;;;4997061;28;20513;-87
2024/03/17 08:27:58;;;;;;;0.10;0.10;;;;;;;;;;4997065;28;20485;-86
2024/03/17 08:30:27;;;;;;;0.40;0.40;;;;;;;;;;5013153;28;20076;-87
2024/03/17 08:32:53;;;;;;;0.10;0.10;;;;;;;;;;4980641;28;20077;-85
2024/03/17 08:35:19;;;;;;;0.10;0.10;;;;;;;;;;5012694;28;20066;-85
2024/03/17 08:37:45;;;;;;;0.10;0.10;;;;;;;;;;5013090;28;20061;-84
2024/03/17 08:40:11;;;;;;;0.10;0.10;;;;;;;;;;5012887;28;20056;-85
2024/03/17 08:42:38;;;;;;;0.10;0.10;;;;;;;;;;4996490;28;20042;-85
2024/03/17 08:45:04;;;;;;;0.20;0.20;;;;;;;;;;4980452;28;20038;-85
2024/03/17 08:47:30;;;;;;;0.10;0.10;;;;;;;;;;4979999;28;20041;-85
2024/03/17 08:49:57;;;;;;;0.10;0.10;;;;;;;;;;5029103;28;20034;-86
2024/03/17 08:52:23;;;;;;;0.10;0.10;;;;;;;;;;5013020;28;20045;-85
2024/03/17 08:54:52;;;;;;;0.10;0.10;;;;;;;;;;5029218;28;20041;-85
2024/03/17 08:57:18;;;;;;;0.20;0.20;;;;;;;;;;5013457;28;20038;-85
2024/03/17 08:59:48;;;;;;;0.17;0.17;;;;;;;;;;5029525;28;20371;-85
2024/03/17 09:02:14;;;;;;;0.20;0.20;;;;;;;;;;5029064;28;20034;-85
2024/03/17 09:04:41;;;;;;;0.10;0.10;;;;;;;;;;5012977;28;20037;-84
2024/03/17 09:07:08;;;;;;;0.10;0.10;;;;;;;;;;5029027;28;20038;-83
2024/03/17 09:09:34;;;;;;;0.63;0.30;;;;;;;;;;5011924;28;20124;-82
2024/03/17 09:12:00;;;;;;;0.20;0.20;;;;;;;;;;5028966;28;20041;-84
2024/03/17 09:14:26;;;;;;;0.20;0.20;;;;;;;;;;5012415;28;20046;-84
2024/03/17 09:16:52;;;;;;;0.25;0.13;;;;;;;;;;5012107;28;20104;-84
2024/03/17 09:19:18;;;;;;;0.10;0.10;;;;;;;;;;5028912;28;20117;-83
2024/03/17 09:21:44;;;;;;;0.10;0.10;;;;;;;;;;5028649;28;20073;-84
2024/03/17 09:24:11;;;;;;;0.10;0.10;;;;;;;;;;5012194;28;20050;-84
2024/03/17 09:26:39;;;;;;;0.10;0.10;;;;;;;;;;5012374;28;20041;-85
2024/03/17 09:29:05;;;;;;;0.17;0.10;;;;;;;;;;5012761;28;20125;-84
2024/03/17 09:31:34;;;;;;;0.10;0.10;;;;;;;;;;5028321;28;20296;-84
2024/03/17 09:34:01;;;;;;;0.10;0.10;;;;;;;;;;5028360;28;20045;-85
2024/03/17 09:36:27;;;;;;;0.10;0.10;;;;;;;;;;5028922;28;20407;-84
2024/03/17 09:38:53;;;;;;;0.10;0.10;;;;;;;;;;5012320;28;20115;-84
2024/03/17 09:41:24;;;;;;;0.10;0.10;;;;;;;;;;5028485;28;20038;-84
2024/03/17 09:43:50;;;;;;;0.10;0.10;;;;;;;;;;5029094;28;20045;-85
2024/03/17 09:46:16;;;;;;;0.10;0.10;;;;;;;;;;5028690;28;20044;-84
2024/03/17 09:48:43;;;;;;;0.55;0.30;;;;;;;;;;5012384;28;20038;-86
2024/03/17 09:51:09;;;;;;;0.13;0.13;;;;;;;;;;5012253;28;20046;-85
2024/03/17 09:53:35;;;;;;;0.10;0.10;;;;;;;;;;5012136;28;20124;-84
2024/03/17 09:56:12;;;;;;;0.10;0.10;;;;;;;;;;5028356;28;20081;-84
2024/03/17 09:58:38;;;;;;;0.10;0.10;;;;;;;;;;5028417;28;20072;-85
2024/03/17 10:01:05;;;;;;;0.20;0.20;;;;;;;;;;5011791;28;20037;-86
2024/03/17 10:03:42;;;;;;;0.10;0.10;;;;;;;;;;5012141;28;20626;-87
2024/03/17 10:06:10;;;;;;;0.17;0.17;;;;;;;;;;5028235;28;20041;-87
2024/03/17 10:08:40;;;;;;;0.10;0.10;;;;;;;;;;5012141;28;20041;-86
2024/03/17 10:11:06;;;;;;;0.30;0.30;;;;;;;;;;5028311;28;20038;-88
2024/03/17 10:13:32;;;;;;;0.30;0.30;;;;;;;;;;5012036;28;20042;-85
2024/03/17 10:15:58;;;;;;;0.35;0.35;;;;;;;;;;5027250;28;20052;-85
2024/03/17 10:18:24;;;;;;;0.10;0.10;;;;;;;;;;4993566;28;20587;-85
2024/03/17 10:20:57;;;;;;;0.30;0.30;;;;;;;;;;5010759;28;20085;-84
2024/03/17 10:23:23;;;;;;;0.10;0.10;;;;;;;;;;4995257;28;20049;-85
2024/03/17 10:25:49;;;;;;;0.20;0.20;;;;;;;;;;4994260;28;20064;-84
2024/03/17 10:28:16;;;;;;;0.20;0.20;;;;;;;;;;5009983;28;20076;-84
2024/03/17 10:30:42;;;;;;;0.30;0.30;;;;;;;;;;5009951;28;20417;-84
2024/03/17 10:33:22;;;;;;;0.10;0.10;;;;;;;;;;4992524;28;20041;-84
2024/03/17 10:35:48;;;;;;;2.42;0.55;;;;;;;;;;4978311;28;20042;-85
2024/03/17 10:38:14;;;;;;;0.10;0.10;;;;;;;;;;4977951;28;20121;-85
2024/03/17 10:40:41;;;;;;;0.20;0.20;;;;;;;;;;4994640;28;20045;-83
2024/03/17 10:43:07;;;;;;;0.20;0.20;;;;;;;;;;4994574;28;20042;-83
2024/03/17 10:45:38;;;;;;;0.17;0.17;;;;;;;;;;4978567;28;20156;-87
2024/03/17 10:48:10;;;;;;;0.47;0.17;;;;;;;;;;5010973;28;20043;-83
2024/03/17 10:50:37;;;;;;;0.20;0.20;;;;;;;;;;4995307;28;20037;-85
2024/03/17 10:53:03;;;;;;;0.20;0.20;;;;;;;;;;4994974;28;20046;-84
2024/03/17 10:55:32;;;;;;;0.20;0.20;;;;;;;;;;5011045;28;20045;-84
2024/03/17 10:57:58;;;;;;;0.20;0.20;;;;;;;;;;5010832;28;20084;-84
2024/03/17 11:00:25;;;;;;;0.60;0.60;;;;;;;;;;4978442;28;20042;-84
2024/03/17 11:02:55;;;;;;;0.25;0.25;;;;;;;;;;4979388;28;20070;-84
2024/03/17 11:05:22;;;;;;;0.10;0.10;;;;;;;;;;4978277;28;20038;-85
2024/03/17 11:07:48;;;;;;;0.20;0.20;;;;;;;;;;4978461;28;20042;-84
2024/03/17 11:10:18;;;;;;;0.10;0.10;;;;;;;;;;4978790;28;20335;-85
2024/03/17 11:12:50;;;;;;;0.40;0.30;;;;;;;;;;5011199;28;20397;-84
2024/03/17 11:15:19;;;;;;;0.10;0.10;;;;;;;;;;4994434;28;20555;-86
2024/03/17 11:17:54;;;;;;;0.10;0.10;;;;;;;;;;4994875;28;20073;-84
2024/03/17 11:20:28;;;;;;;0.20;0.20;;;;;;;;;;4994408;28;20137;-85
2024/03/17 11:22:56;;;;;;;0.10;0.10;;;;;;;;;;4994571;28;20087;-86
2024/03/17 11:25:31;;;;;;;0.28;0.28;;;;;;;;;;4978428;28;20046;-85
2024/03/17 11:28:05;;;;;;;0.10;0.10;;;;;;;;;;4994595;28;20386;-84
2024/03/17 11:30:43;;;;;;;0.75;0.75;;;;;;;;;;4978978;28;20046;-87
2024/03/17 11:33:28;;;;;;;0.30;0.30;;;;;;;;;;5014918;28;20462;-83
2024/03/17 11:36:13;;;;;;;0.20;0.20;;;;;;;;;;5013995;28;20046;-84
2024/03/17 11:39:21;;;;;;;0.20;0.20;;;;;;;;;;5014336;28;20482;-84
2024/03/17 11:41:47;;;;;;;0.60;0.47;;;;;;;;;;4961008;28;20058;-83
2024/03/17 11:44:18;;;;;;;0.57;0.57;;;;;;;;;;4981826;28;20061;-83
2024/03/17 11:46:44;;;;;;;0.10;0.10;;;;;;;;;;4998951;28;20124;-85
2024/03/17 11:49:20;;;;;;;0.22;0.22;;;;;;;;;;4981696;28;20046;-84
2024/03/17 11:51:46;;;;;;;0.30;0.30;;;;;;;;;;4997952;28;20128;-84
2024/03/17 11:54:19;;;;;;;0.10;0.10;;;;;;;;;;4981671;28;20055;-83
2024/03/17 11:56:49;;;;;;;0.30;0.30;;;;;;;;;;4998286;28;20486;-83
2024/03/17 11:59:17;;;;;;;0.25;0.25;;;;;;;;;;4981726;28;20048;-85
2024/03/17 12:01:44;;;;;;;0.10;0.10;;;;;;;;;;4981614;28;20042;-84
2024/03/17 12:04:14;;;;;;;0.30;0.30;;;;;;;;;;4998407;28;20045;-85
2024/03/17 12:06:40;;;;;;;0.25;0.25;;;;;;;;;;4981440;28;20124;-84
2024/03/17 12:09:12;;;;;;;0.55;0.55;;;;;;;;;;4997643;28;20381;-84
2024/03/17 12:11:38;;;;;;;0.43;0.30;;;;;;;;;;5013533;28;20088;-84
2024/03/17 12:14:13;;;;;;;0.30;0.30;;;;;;;;;;4981209;28;20048;-84
2024/03/17 12:16:41;;;;;;;0.15;0.15;;;;;;;;;;4983345;28;20427;-83
2024/03/17 12:19:09;;;;;;;0.43;0.43;;;;;;;;;;4984897;28;20469;-84
2024/03/17 12:21:35;;;;;;;0.55;0.47;;;;;;;;;;4984405;28;20053;-85
2024/03/17 12:24:01;;;;;;;0.30;0.30;;;;;;;;;;5000450;28;20131;-88
2024/03/17 12:26:27;;;;;;;0.20;0.20;;;;;;;;;;4984581;28;20041;-86
2024/03/17 12:28:53;;;;;;;0.10;0.10;;;;;;;;;;4985175;28;20041;-84
2024/03/17 12:31:19;;;;;;;0.30;0.30;;;;;;;;;;5000731;28;20057;-85
2024/03/17 12:33:45;;;;;;;0.20;0.20;;;;;;;;;;4984378;28;20053;-85
2024/03/17 12:36:13;;;;;;;0.10;0.10;;;;;;;;;;5000693;28;20041;-84
2024/03/17 12:38:39;;;;;;;0.88;0.88;;;;;;;;;;4990965;28;20050;-87
2024/03/17 12:41:09;;;;;;;0.75;0.40;;;;;;;;;;5005847;28;20536;-86
2024/03/17 12:43:36;;;;;;;0.20;0.20;;;;;;;;;;4985504;28;20429;-86
2024/03/17 12:46:03;;;;;;;0.15;0.15;;;;;;;;;;4983984;28;20517;-86
2024/03/17 12:48:29;;;;;;;1.05;0.95;;;;;;;;;;4983825;28;20042;-86
2024/03/17 12:50:55;;;;;;;0.13;0.10;;;;;;;;;;4999819;28;20539;-86
2024/03/17 12:53:22;;;;;;;0.20;0.20;;;;;;;;;;4984212;28;20393;-86
2024/03/17 13:01:24;;;;;;;0.57;0.43;;;;;;;;;;5002003;28;20050;-85
2024/03/17 13:03:50;;;;;;;0.10;0.10;;;;;;;;;;4984129;28;20432;-86
2024/03/17 13:06:24;;;;;;;0.30;0.30;;;;;;;;;;4983978;28;20068;-86
2024/03/17 13:08:50;;;;;;;0.13;0.13;;;;;;;;;;4983669;28;20068;-85
2024/03/17 13:11:16;;;;;;;0.52;0.40;;;;;;;;;;5000108;28;20045;-86
2024/03/17 13:13:42;;;;;;;0.38;0.38;;;;;;;;;;4999483;28;20065;-86
2024/03/17 13:16:09;;;;;;;0.65;0.65;;;;;;;;;;4983320;28;20065;-85
2024/03/17 13:18:35;;;;;;;0.55;0.40;;;;;;;;;;4999469;28;20398;-86
2024/03/17 13:21:01;;;;;;;0.20;0.20;;;;;;;;;;4999446;28;20049;-86
2024/03/17 13:23:29;;;;;;;0.20;0.20;;;;;;;;;;4983259;28;20041;-86
2024/03/17 13:25:55;;;;;;;0.45;0.45;;;;;;;;;;4983479;28;20091;-85
2024/03/17 13:28:21;;;;;;;0.35;0.35;;;;;;;;;;4999579;28;20521;-84
2024/03/17 13:30:48;;;;;;;0.20;0.20;;;;;;;;;;4999356;28;20080;-86
2024/03/17 13:33:15;;;;;;;0.32;0.32;;;;;;;;;;4999374;28;20108;-85
2024/03/17 13:35:41;;;;;;;0.32;0.32;;;;;;;;;;4983456;28;20053;-86
2024/03/17 13:38:07;;;;;;;0.10;0.10;;;;;;;;;;4983102;28;20045;-84
2024/03/17 13:40:37;;;;;;;0.40;0.40;;;;;;;;;;4982769;28;20037;-82
2024/03/17 13:43:03;;;;;;;0.20;0.20;;;;;;;;;;4983201;28;20323;-84
2024/03/17 13:45:32;;;;;;;0.20;0.20;;;;;;;;;;4982884;28;20069;-84
2024/03/17 13:47:58;;;;;;;0.13;0.13;;;;;;;;;;4982953;28;20516;-84
2024/03/17 13:50:25;;;;;;;0.20;0.20;;;;;;;;;;4999001;28;20041;-84
2024/03/17 13:52:51;;;;;;;0.20;0.20;;;;;;;;;;4982997;28;20071;-85
2024/03/17 13:55:18;;;;;;;0.20;0.20;;;;;;;;;;4982070;28;20539;-85
2024/03/17 13:57:51;;;;;;;0.30;0.30;;;;;;;;;;4982642;28;20037;-84
2024/03/17 14:00:17;;;;;;;1.75;1.65;;;;;;;;;;4982610;28;20041;-85
2024/03/17 14:02:46;;;;;;;0.40;0.40;;;;;;;;;;4998773;28;20506;-84
2024/03/17 14:05:12;;;;;;;0.30;0.30;;;;;;;;;;4998612;28;20087;-85
2024/03/17 14:07:39;;;;;;;0.77;0.45;;;;;;;;;;4998623;28;20048;-84
2024/03/17 14:10:05;;;;;;;0.20;0.20;;;;;;;;;;4982348;28;20037;-83
2024/03/17 14:12:31;;;;;;;0.28;0.28;;;;;;;;;;5014901;28;20687;-83
2024/03/17 14:14:57;;;;;;;0.20;0.20;;;;;;;;;;4982403;28;20033;-85
2024/03/17 14:17:36;;;;;;;0.15;0.15;;;;;;;;;;4998548;28;20064;-84
2024/03/17 14:20:03;;;;;;;0.17;0.17;;;;;;;;;;5015029;28;20416;-87
2024/03/17 14:22:29;;;;;;;0.30;0.30;;;;;;;;;;4998453;28;20046;-87
2024/03/17 14:24:55;;;;;;;0.10;0.10;;;;;;;;;;4998762;28;20041;-87
2024/03/17 14:27:21;;;;;;;0.30;0.30;;;;;;;;;;4982487;28;20073;-87
2024/03/17 14:29:47;;;;;;;0.30;0.30;;;;;;;;;;4982104;28;20485;-87
2024/03/17 14:32:14;;;;;;;1.00;1.00;;;;;;;;;;4982405;28;20048;-88
2024/03/17 14:34:40;;;;;;;0.30;0.30;;;;;;;;;;4999896;28;20049;-85
2024/03/17 14:37:06;;;;;;;0.20;0.17;;;;;;;;;;4998337;28;20096;-84
2024/03/17 14:39:33;;;;;;;1.27;1.27;;;;;;;;;;5014406;28;20060;-84
2024/03/17 14:41:59;;;;;;;0.10;0.10;;;;;;;;;;5014346;28;20047;-87
2024/03/17 14:44:25;;;;;;;0.30;0.30;;;;;;;;;;4998361;28;20504;-83
2024/03/17 14:46:52;;;;;;;0.20;0.20;;;;;;;;;;5014359;28;20065;-83
2024/03/17 14:49:21;;;;;;;0.47;0.47;;;;;;;;;;5014309;28;20121;-84
2024/03/17 14:51:47;;;;;;;0.25;0.25;;;;;;;;;;4997856;28;20040;-84